Wells Town, Mississippi
Current Conditions -  °F | °C
As of 1:53 AM on Monday 26 Jan 2015 (Local Time) from KHBG Reporting Station
Clear Clear  
Wind Chill: 51°   Ceiling: Unl
Heat Index: 51°   Visibility: 10mi
Dew Point: 34°   Wind: 9mph
Humidity: 52%   Direction: 300°WNW
Pressure: 29.98"   Gusts: NA
Location:  31.0601°N, 89.4815°W
Report Text: KHBG 260753Z AUTO 30008KT 10SM CLR 11/01 A2998 RMK AO2 SLP151 T01060011
Loading
Personal Weather Stations






























Interactive Weather Map New forecast layout! Learn more

10-Day Weather Forecast

Advertisements
Track Severe Weather on mobile